Alton, Iowa
Current Conditions -  °F | °C
As of 9:35 AM on Saturday 22 Nov 2014 (Local Time) from KORC Reporting Station
Moderate Fog Moderate Fog  
Wind Chill: 27°   Ceiling: 100
Heat Index: 36°   Visibility: 0.5mi
Dew Point: 36°   Wind: 14mph
Humidity: 100%   Direction: 200°SSW
Pressure: 29.75"   Gusts: NA
Location:  42.99°N, 96.01°W
Report Text: KORC 221535Z AUTO 20012KT 1/2SM FG OVC001 02/02 A2975 RMK AO2
Loading
Personal Weather Stations






























Interactive Weather Map New forecast layout! Learn more

10-Day Weather Forecast

Advertisements
Track Severe Weather on mobile